This is the latest recevied weather packets stored in our database for station/object SQ9PDE-13. If no packets are shown the sender has not sent any weather packets the latest 10 day(s).
| Time | Temp. | Humidity | Pressure | Rain* | Wind** | Luminosity | Snow |
|---|---|---|---|---|---|---|---|
| 1778068356 | 23.89° C | 45% | 1004.8 hPa | - | - | - | - |
| 1778068055 | 24.44° C | 45% | 1004.7 hPa | - | - | - | - |
| 1778067755 | 24.44° C | 44% | 1004.7 hPa | - | - | - | - |
| 1778067454 | 23.33° C | 47% | 1004.9 hPa | - | - | - | - |
| 1778067153 | 24.44° C | 45% | 1004.6 hPa | - | - | - | - |
| 1778066853 | 24.44° C | 45% | 1004.8 hPa | - | - | - | - |
| 1778066633 | 23.89° C | 47% | 1005 hPa | - | - | - | - |
| 1778066553 | 24.44° C | 46% | 1004.8 hPa | - | - | - | - |
| 1778066252 | 23.89° C | 47% | 1005 hPa | - | - | - | - |
| 1778065952 | 24.44° C | 46% | 1005 hPa | - | - | - | - |
| 1778065651 | 23.89° C | 48% | 1005 hPa | - | - | - | - |
| 1778065350 | 23.33° C | 47% | 1005.1 hPa | - | - | - | - |
| 1778065050 | 23.33° C | 49% | 1005.3 hPa | - | - | - | - |
| 1778064749 | 25° C | 49% | 1004.9 hPa | - | - | - | - |
| 1778064449 | 23.89° C | 51% | 1005.3 hPa | - | - | - | - |
| 1778064148 | 23.33° C | 50% | 1005.3 hPa | - | - | - | - |
| 1778063848 | 22.78° C | 50% | 1005.4 hPa | - | - | - | - |
| 1778063547 | 22.78° C | 50% | 1005.4 hPa | - | - | - | - |
| 1778063247 | 22.22° C | 51% | 1005.5 hPa | - | - | - | - |
| 1778062946 | 23.33° C | 49% | 1005.2 hPa | - | - | - | - |
| 1778062646 | 22.78° C | 49% | 1005.4 hPa | - | - | - | - |
| 1778062345 | 23.89° C | 48% | 1005.1 hPa | - | - | - | - |
| 1778062045 | 24.44° C | 48% | 1005 hPa | - | - | - | - |
| 1778061744 | 23.89° C | 46% | 1004.9 hPa | - | - | - | - |
| 1778061444 | 22.78° C | 50% | 1005.3 hPa | - | - | - | - |
* Rain since midnight (hover to see other rain measurements)
** Current wind speed in m/s (hover to see current wind gust speed)